METAR Data
IDs: Format: Raw Decoded Include TAF

Data at: 1502 UTC 10 Aug 2022

KRDD 101453Z 00000KT 10SM CLR 20/10 A3003 RMK AO2 SLP163 T02000100 53018
KRDD 101353Z 00000KT 10SM CLR 18/09 A3001 RMK AO2 SLP157 T01830089
KRDD 101253Z AUTO 14005KT 10SM CLR 19/09 A2999 RMK AO2 SLP149 T01890094
KRDD 101153Z AUTO 00000KT 10SM CLR 19/09 A2998 RMK AO2 SLP144 T01940089 10283 20194 51013
KRDD 101053Z AUTO VRB03KT 10SM CLR 21/09 A2996 RMK AO2 SLP139 T02110089
KRDD 100953Z AUTO 26006KT 10SM CLR 22/08 A2995 RMK AO2 SLP135 T02220083
KRDD 100853Z AUTO 21007KT 10SM CLR 25/06 A2994 RMK AO2 SLP130 T02500061 51018
KRDD 100753Z AUTO 18010KT 10SM CLR 26/07 A2992 RMK AO2 SLP126 T02560072 403720189
KRDD 100653Z AUTO 17012KT 10SM CLR 27/08 A2991 RMK AO2 SLPNO T02670078
KRDD 100553Z AUTO 16013KT 10SM CLR 28/06 A2988 RMK AO2 SLP113 T02830061 10356 20283 53026
KRDD 100453Z AUTO 17017G23KT 10SM CLR 30/05 A2986 RMK AO2 SLP104 T03000050
KRDD 100353Z 16010KT 10SM CLR 31/04 A2983 RMK AO2 SLP095 T03060044
KRDD 100253Z 17016KT 10SM CLR 32/04 A2980 RMK AO2 SLP087 T03220039 53002
KRDD 100153Z 17018G23KT 10SM CLR 34/03 A2980 RMK AO2 PK WND 17026/0122 SLP083 T03390033
KRDD 100053Z 18021G26KT 10SM CLR 35/03 A2980 RMK AO2 PK WND 17028/2359 SLP082 T03500033
KRDD 092353Z 16020KT 10SM CLR 36/03 A2980 RMK AO2 PK WND 16026/2348 SLP084 T03560028 10372 20261 56021
KRDD 092253Z 17015G20KT 10SM CLR 36/03 A2982 RMK AO2 SLP091 T03560033
KRDD 092153Z 18016G21KT 10SM CLR 35/04 A2984 RMK AO2 SLP096 T03500044
KRDD 092053Z 15010G19KT 10SM CLR 34/05 A2986 RMK AO2 SLP105 T03390050
KRDD 091953Z AUTO 10SM CLR 34/09 A2988 RMK AO2 SLP112 T03440089 $
KRDD 091753Z AUTO 00000KT 10SM FEW001 29/10 A2991 RMK AO2 SLP122 T02940100 10294 20189 58004
KRDD 091653Z 00000KT 10SM CLR 26/11 A2992 RMK AO2 SLP126 T02560106 VISNO RWY 34 $
KRDD 091553Z 00000KT 10SM CLR 24/10 A2993 RMK AO2 SLP127 T02440100
KRDD 091453Z 00000KT 10SM CLR 22/08 A2992 RMK AO2 SLP126 T02170083 53014
KRDD 091353Z 02003KT 10SM CLR 20/07 A2991 RMK AO2 SLP120 T02000072
KRDD 091253Z AUTO 00000KT 10SM CLR 19/07 A2990 RMK AO2 SLP117 T01890067
KRDD 091153Z AUTO 00000KT 10SM CLR 21/07 A2988 RMK AO2 SLP113 T02060072 10278 20194 51003
KRDD 091053Z AUTO 00000KT 10SM CLR 20/06 A2988 RMK AO2 SLP112 T02000061
KRDD 090953Z AUTO 00000KT 10SM CLR 21/06 A2988 RMK AO2 SLP110 T02110061
KRDD 090853Z AUTO 30004KT 10SM CLR 22/06 A2987 RMK AO2 SLP109 T02220061 50001
KRDD 090753Z AUTO 01004KT 10SM CLR 24/05 A2988 RMK AO2 SLP111 T02390050 403780194
KRDD 090653Z AUTO 00000KT 10SM CLR 26/04 A2987 RMK AO2 LTG DSNT NE SLP109 T02610039
KRDD 090553Z AUTO 03003KT 10SM CLR 28/03 A2987 RMK AO2 SLP108 T02780028 10378 20267 51017
KRDD 090453Z AUTO 00000KT 10SM CLR 28/02 A2986 RMK AO2 SLP104 T02830017
KRDD 090353Z 20005KT 10SM CLR 32/01 A2984 RMK AO2 SLP097 T03220006